sensor_id;sensor_type;location;lat;lon;timestamp;temperature;humidity
41324;DHT22;27073;51.128;4.220;2023-04-25T00:00:46;10.60;74.50
41324;DHT22;27073;51.128;4.220;2023-04-25T00:03:12;10.60;74.50
41324;DHT22;27073;51.128;4.220;2023-04-25T00:05:37;10.80;75.40
41324;DHT22;27073;51.128;4.220;2023-04-25T00:08:04;10.90;74.20
41324;DHT22;27073;51.128;4.220;2023-04-25T00:10:30;11.00;73.00
41324;DHT22;27073;51.128;4.220;2023-04-25T00:12:56;11.00;72.60
41324;DHT22;27073;51.128;4.220;2023-04-25T00:15:23;11.10;71.30
41324;DHT22;27073;51.128;4.220;2023-04-25T00:17:49;11.00;69.10
41324;DHT22;27073;51.128;4.220;2023-04-25T00:20:18;10.90;66.90
41324;DHT22;27073;51.128;4.220;2023-04-25T00:22:43;11.00;70.40
41324;DHT22;27073;51.128;4.220;2023-04-25T00:25:09;11.00;68.00
41324;DHT22;27073;51.128;4.220;2023-04-25T00:27:35;10.90;63.10
41324;DHT22;27073;51.128;4.220;2023-04-25T00:30:01;11.00;66.00
41324;DHT22;27073;51.128;4.220;2023-04-25T00:32:28;11.00;65.90
41324;DHT22;27073;51.128;4.220;2023-04-25T00:34:54;10.70;64.10
41324;DHT22;27073;51.128;4.220;2023-04-25T00:37:21;10.60;64.90
41324;DHT22;27073;51.128;4.220;2023-04-25T00:39:47;10.70;67.80
41324;DHT22;27073;51.128;4.220;2023-04-25T00:42:12;10.80;69.30
41324;DHT22;27073;51.128;4.220;2023-04-25T00:44:39;10.80;64.00
41324;DHT22;27073;51.128;4.220;2023-04-25T00:47:05;10.70;60.60
41324;DHT22;27073;51.128;4.220;2023-04-25T00:49:32;10.50;66.60
41324;DHT22;27073;51.128;4.220;2023-04-25T00:51:57;10.50;69.10
41324;DHT22;27073;51.128;4.220;2023-04-25T00:54:23;10.40;69.10
41324;DHT22;27073;51.128;4.220;2023-04-25T00:56:50;10.40;70.20
41324;DHT22;27073;51.128;4.220;2023-04-25T00:59:16;10.40;74.30
41324;DHT22;27073;51.128;4.220;2023-04-25T01:01:42;10.20;74.10
41324;DHT22;27073;51.128;4.220;2023-04-25T01:04:09;10.30;74.30
41324;DHT22;27073;51.128;4.220;2023-04-25T01:06:35;10.20;77.00
41324;DHT22;27073;51.128;4.220;2023-04-25T01:09:01;10.00;80.10
41324;DHT22;27073;51.128;4.220;2023-04-25T01:11:27;10.30;81.00
41324;DHT22;27073;51.128;4.220;2023-04-25T01:13:53;10.30;79.10
41324;DHT22;27073;51.128;4.220;2023-04-25T01:16:18;10.30;78.50
41324;DHT22;27073;51.128;4.220;2023-04-25T01:18:45;10.20;79.30
41324;DHT22;27073;51.128;4.220;2023-04-25T01:21:12;10.00;80.60
41324;DHT22;27073;51.128;4.220;2023-04-25T01:23:40;10.10;85.20
41324;DHT22;27073;51.128;4.220;2023-04-25T01:26:07;10.20;86.30
41324;DHT22;27073;51.128;4.220;2023-04-25T01:28:34;10.30;81.70
41324;DHT22;27073;51.128;4.220;2023-04-25T01:31:01;10.50;82.50
41324;DHT22;27073;51.128;4.220;2023-04-25T01:33:27;10.60;79.40
41324;DHT22;27073;51.128;4.220;2023-04-25T01:35:53;10.60;76.10
41324;DHT22;27073;51.128;4.220;2023-04-25T01:38:19;10.70;77.60
41324;DHT22;27073;51.128;4.220;2023-04-25T01:40:46;10.70;74.80
41324;DHT22;27073;51.128;4.220;2023-04-25T01:43:14;10.80;72.00
41324;DHT22;27073;51.128;4.220;2023-04-25T01:45:41;10.60;67.30
41324;DHT22;27073;51.128;4.220;2023-04-25T01:48:10;10.40;71.20
41324;DHT22;27073;51.128;4.220;2023-04-25T01:50:38;10.30;75.00
41324;DHT22;27073;51.128;4.220;2023-04-25T01:53:04;10.10;77.40
41324;DHT22;27073;51.128;4.220;2023-04-25T01:55:30;10.10;78.80
41324;DHT22;27073;51.128;4.220;2023-04-25T01:58:09;9.90;80.00
41324;DHT22;27073;51.128;4.220;2023-04-25T02:00:57;9.80;82.30
41324;DHT22;27073;51.128;4.220;2023-04-25T02:03:27;9.70;84.10
41324;DHT22;27073;51.128;4.220;2023-04-25T02:05:53;9.70;87.30
41324;DHT22;27073;51.128;4.220;2023-04-25T02:08:20;9.60;86.90
41324;DHT22;27073;51.128;4.220;2023-04-25T02:10:46;9.70;89.30
41324;DHT22;27073;51.128;4.220;2023-04-25T02:13:15;9.60;87.90
41324;DHT22;27073;51.128;4.220;2023-04-25T02:15:49;9.60;90.60
41324;DHT22;27073;51.128;4.220;2023-04-25T02:18:17;9.70;90.70
41324;DHT22;27073;51.128;4.220;2023-04-25T02:20:43;9.70;87.70
41324;DHT22;27073;51.128;4.220;2023-04-25T02:23:09;9.50;89.50
41324;DHT22;27073;51.128;4.220;2023-04-25T02:25:36;9.50;88.50
41324;DHT22;27073;51.128;4.220;2023-04-25T02:28:01;9.50;89.70
41324;DHT22;27073;51.128;4.220;2023-04-25T02:30:28;9.50;90.60
41324;DHT22;27073;51.128;4.220;2023-04-25T02:32:54;9.40;90.10
41324;DHT22;27073;51.128;4.220;2023-04-25T02:35:20;9.00;93.80
41324;DHT22;27073;51.128;4.220;2023-04-25T02:37:45;8.90;96.60
41324;DHT22;27073;51.128;4.220;2023-04-25T02:40:12;9.00;97.00
41324;DHT22;27073;51.128;4.220;2023-04-25T02:42:38;8.90;96.70
41324;DHT22;27073;51.128;4.220;2023-04-25T02:45:04;8.90;97.80
41324;DHT22;27073;51.128;4.220;2023-04-25T02:47:30;9.00;98.20
41324;DHT22;27073;51.128;4.220;2023-04-25T02:49:56;9.10;98.10
41324;DHT22;27073;51.128;4.220;2023-04-25T02:52:22;9.30;98.80
41324;DHT22;27073;51.128;4.220;2023-04-25T02:54:56;9.50;98.10
41324;DHT22;27073;51.128;4.220;2023-04-25T02:57:22;9.70;96.50
41324;DHT22;27073;51.128;4.220;2023-04-25T02:59:47;9.70;92.60
41324;DHT22;27073;51.128;4.220;2023-04-25T03:02:13;9.70;93.40
41324;DHT22;27073;51.128;4.220;2023-04-25T03:04:39;9.80;92.70
41324;DHT22;27073;51.128;4.220;2023-04-25T03:07:06;9.80;92.30
41324;DHT22;27073;51.128;4.220;2023-04-25T03:09:31;9.90;92.10
41324;DHT22;27073;51.128;4.220;2023-04-25T03:11:59;10.00;90.50
41324;DHT22;27073;51.128;4.220;2023-04-25T03:14:24;10.00;83.20
41324;DHT22;27073;51.128;4.220;2023-04-25T03:16:50;10.00;85.10
41324;DHT22;27073;51.128;4.220;2023-04-25T03:19:16;10.00;85.00
41324;DHT22;27073;51.128;4.220;2023-04-25T03:21:42;9.80;80.40
41324;DHT22;27073;51.128;4.220;2023-04-25T03:24:08;9.70;85.50
41324;DHT22;27073;51.128;4.220;2023-04-25T03:26:34;9.40;88.40
41324;DHT22;27073;51.128;4.220;2023-04-25T03:29:00;9.40;90.90
41324;DHT22;27073;51.128;4.220;2023-04-25T03:31:26;9.30;90.20
41324;DHT22;27073;51.128;4.220;2023-04-25T03:33:51;9.40;90.90
41324;DHT22;27073;51.128;4.220;2023-04-25T03:36:21;9.40;88.80
41324;DHT22;27073;51.128;4.220;2023-04-25T03:38:47;9.40;84.50
41324;DHT22;27073;51.128;4.220;2023-04-25T03:41:15;9.30;87.80
41324;DHT22;27073;51.128;4.220;2023-04-25T03:43:44;9.10;88.20
41324;DHT22;27073;51.128;4.220;2023-04-25T03:46:12;8.70;89.90
41324;DHT22;27073;51.128;4.220;2023-04-25T03:48:39;8.60;90.80
41324;DHT22;27073;51.128;4.220;2023-04-25T03:51:06;8.40;90.00
41324;DHT22;27073;51.128;4.220;2023-04-25T03:53:35;8.50;91.40
41324;DHT22;27073;51.128;4.220;2023-04-25T03:56:19;8.70;92.30
41324;DHT22;27073;51.128;4.220;2023-04-25T03:58:47;8.70;82.80
41324;DHT22;27073;51.128;4.220;2023-04-25T04:01:15;8.70;81.80
41324;DHT22;27073;51.128;4.220;2023-04-25T04:03:42;8.60;77.50
41324;DHT22;27073;51.128;4.220;2023-04-25T04:06:07;8.50;78.10
41324;DHT22;27073;51.128;4.220;2023-04-25T04:08:40;8.40;79.40
41324;DHT22;27073;51.128;4.220;2023-04-25T04:11:08;8.50;81.00
41324;DHT22;27073;51.128;4.220;2023-04-25T04:13:33;8.50;78.30
41324;DHT22;27073;51.128;4.220;2023-04-25T04:16:01;8.60;73.10
41324;DHT22;27073;51.128;4.220;2023-04-25T04:18:26;8.60;73.90
41324;DHT22;27073;51.128;4.220;2023-04-25T04:20:54;8.70;74.10
41324;DHT22;27073;51.128;4.220;2023-04-25T04:23:20;8.90;70.30
41324;DHT22;27073;51.128;4.220;2023-04-25T04:25:48;9.10;67.80
41324;DHT22;27073;51.128;4.220;2023-04-25T04:28:27;9.10;60.30
41324;DHT22;27073;51.128;4.220;2023-04-25T04:31:20;9.10;57.10
41324;DHT22;27073;51.128;4.220;2023-04-25T04:33:47;9.00;53.30
41324;DHT22;27073;51.128;4.220;2023-04-25T04:36:14;9.10;54.70
41324;DHT22;27073;51.128;4.220;2023-04-25T04:38:41;9.20;49.10
41324;DHT22;27073;51.128;4.220;2023-04-25T04:41:11;9.30;52.50
41324;DHT22;27073;51.128;4.220;2023-04-25T04:43:48;9.50;53.90
41324;DHT22;27073;51.128;4.220;2023-04-25T04:46:24;9.70;51.70
41324;DHT22;27073;51.128;4.220;2023-04-25T04:49:10;9.70;47.90
41324;DHT22;27073;51.128;4.220;2023-04-25T04:51:59;9.60;36.80
41324;DHT22;27073;51.128;4.220;2023-04-25T04:54:38;9.40;40.40
41324;DHT22;27073;51.128;4.220;2023-04-25T04:57:30;9.50;48.10
41324;DHT22;27073;51.128;4.220;2023-04-25T05:00:15;9.50;42.70
41324;DHT22;27073;51.128;4.220;2023-04-25T05:02:53;9.60;48.80
41324;DHT22;27073;51.128;4.220;2023-04-25T05:05:37;9.70;44.70
41324;DHT22;27073;51.128;4.220;2023-04-25T05:08:25;9.50;47.50
41324;DHT22;27073;51.128;4.220;2023-04-25T05:11:10;9.40;48.70
41324;DHT22;27073;51.128;4.220;2023-04-25T05:14:03;9.40;48.00
41324;DHT22;27073;51.128;4.220;2023-04-25T05:16:55;9.50;50.30
41324;DHT22;27073;51.128;4.220;2023-04-25T05:19:43;9.70;53.60
41324;DHT22;27073;51.128;4.220;2023-04-25T05:22:27;9.40;50.50
41324;DHT22;27073;51.128;4.220;2023-04-25T05:25:19;9.10;54.90
41324;DHT22;27073;51.128;4.220;2023-04-25T05:28:04;9.20;58.30
41324;DHT22;27073;51.128;4.220;2023-04-25T05:30:39;9.00;58.40
41324;DHT22;27073;51.128;4.220;2023-04-25T05:33:18;8.90;62.50
41324;DHT22;27073;51.128;4.220;2023-04-25T05:35:45;9.10;64.40
41324;DHT22;27073;51.128;4.220;2023-04-25T05:38:11;9.20;58.30
41324;DHT22;27073;51.128;4.220;2023-04-25T05:40:55;9.10;62.30
41324;DHT22;27073;51.128;4.220;2023-04-25T05:43:39;9.30;63.00
41324;DHT22;27073;51.128;4.220;2023-04-25T05:46:22;9.30;59.00
41324;DHT22;27073;51.128;4.220;2023-04-25T05:49:09;9.50;59.20
41324;DHT22;27073;51.128;4.220;2023-04-25T05:51:54;9.60;54.70
41324;DHT22;27073;51.128;4.220;2023-04-25T05:54:55;9.70;58.10
41324;DHT22;27073;51.128;4.220;2023-04-25T05:57:26;9.70;48.00
41324;DHT22;27073;51.128;4.220;2023-04-25T05:59:53;9.70;48.80
41324;DHT22;27073;51.128;4.220;2023-04-25T06:02:21;9.90;50.60
41324;DHT22;27073;51.128;4.220;2023-04-25T06:04:51;10.00;43.50
41324;DHT22;27073;51.128;4.220;2023-04-25T06:07:17;10.00;37.70
41324;DHT22;27073;51.128;4.220;2023-04-25T06:09:44;9.90;30.50
41324;DHT22;27073;51.128;4.220;2023-04-25T06:12:09;9.80;27.90
41324;DHT22;27073;51.128;4.220;2023-04-25T06:14:35;9.80;33.60
41324;DHT22;27073;51.128;4.220;2023-04-25T06:17:03;9.90;41.20
41324;DHT22;27073;51.128;4.220;2023-04-25T06:19:35;9.70;28.10
41324;DHT22;27073;51.128;4.220;2023-04-25T06:22:02;9.80;36.10
41324;DHT22;27073;51.128;4.220;2023-04-25T06:24:28;9.70;28.60
41324;DHT22;27073;51.128;4.220;2023-04-25T06:26:54;9.70;32.40
41324;DHT22;27073;51.128;4.220;2023-04-25T06:29:20;9.60;33.30
41324;DHT22;27073;51.128;4.220;2023-04-25T06:31:46;9.50;35.60
41324;DHT22;27073;51.128;4.220;2023-04-25T06:34:12;9.30;36.70
41324;DHT22;27073;51.128;4.220;2023-04-25T06:36:40;9.30;41.50
41324;DHT22;27073;51.128;4.220;2023-04-25T06:39:08;9.00;50.00
41324;DHT22;27073;51.128;4.220;2023-04-25T06:41:34;9.00;49.00
41324;DHT22;27073;51.128;4.220;2023-04-25T06:44:05;8.90;44.40
41324;DHT22;27073;51.128;4.220;2023-04-25T06:46:35;9.00;48.20
41324;DHT22;27073;51.128;4.220;2023-04-25T06:49:01;9.00;44.40
41324;DHT22;27073;51.128;4.220;2023-04-25T06:51:27;9.00;43.50
41324;DHT22;27073;51.128;4.220;2023-04-25T06:53:55;9.00;40.90
41324;DHT22;27073;51.128;4.220;2023-04-25T06:56:28;9.10;44.20
41324;DHT22;27073;51.128;4.220;2023-04-25T06:59:04;9.20;46.00
41324;DHT22;27073;51.128;4.220;2023-04-25T07:01:32;9.20;46.10
41324;DHT22;27073;51.128;4.220;2023-04-25T07:04:01;9.40;44.20
41324;DHT22;27073;51.128;4.220;2023-04-25T07:06:28;9.30;46.90
41324;DHT22;27073;51.128;4.220;2023-04-25T07:08:54;9.30;40.30
41324;DHT22;27073;51.128;4.220;2023-04-25T07:11:21;9.20;39.30
41324;DHT22;27073;51.128;4.220;2023-04-25T07:13:46;9.20;42.80
41324;DHT22;27073;51.128;4.220;2023-04-25T07:16:12;9.30;39.10
41324;DHT22;27073;51.128;4.220;2023-04-25T07:18:38;9.30;33.20
41324;DHT22;27073;51.128;4.220;2023-04-25T07:21:04;9.30;42.20
41324;DHT22;27073;51.128;4.220;2023-04-25T07:23:32;9.40;38.30
41324;DHT22;27073;51.128;4.220;2023-04-25T07:26:01;9.50;37.50
41324;DHT22;27073;51.128;4.220;2023-04-25T07:28:29;9.20;37.50
41324;DHT22;27073;51.128;4.220;2023-04-25T07:30:55;9.40;40.10
41324;DHT22;27073;51.128;4.220;2023-04-25T07:33:21;9.30;30.90
41324;DHT22;27073;51.128;4.220;2023-04-25T07:35:47;9.50;32.90
41324;DHT22;27073;51.128;4.220;2023-04-25T07:38:13;9.40;23.10
41324;DHT22;27073;51.128;4.220;2023-04-25T07:40:39;9.30;27.30
41324;DHT22;27073;51.128;4.220;2023-04-25T07:43:07;9.20;20.10
41324;DHT22;27073;51.128;4.220;2023-04-25T07:45:44;9.30;23.00
41324;DHT22;27073;51.128;4.220;2023-04-25T07:48:10;9.30;23.80
41324;DHT22;27073;51.128;4.220;2023-04-25T07:50:38;9.60;18.80
41324;DHT22;27073;51.128;4.220;2023-04-25T07:53:03;9.50;5.10
41324;DHT22;27073;51.128;4.220;2023-04-25T07:55:38;9.40;1.00
41324;DHT22;27073;51.128;4.220;2023-04-25T07:58:14;9.40;1.00
41324;DHT22;27073;51.128;4.220;2023-04-25T08:00:43;9.60;1.00
41324;DHT22;27073;51.128;4.220;2023-04-25T08:03:24;9.70;1.00
41324;DHT22;27073;51.128;4.220;2023-04-25T08:05:51;9.80;1.00
41324;DHT22;27073;51.128;4.220;2023-04-25T08:08:17;10.00;1.00
41324;DHT22;27073;51.128;4.220;2023-04-25T08:10:43;10.00;1.00
41324;DHT22;27073;51.128;4.220;2023-04-25T08:13:12;10.10;1.00
41324;DHT22;27073;51.128;4.220;2023-04-25T08:15:39;9.90;1.00
41324;DHT22;27073;51.128;4.220;2023-04-25T08:18:05;10.00;1.00
41324;DHT22;27073;51.128;4.220;2023-04-25T08:20:31;9.90;1.00
41324;DHT22;27073;51.128;4.220;2023-04-25T08:22:59;9.60;1.00
41324;DHT22;27073;51.128;4.220;2023-04-25T08:25:32;9.40;9.00
41324;DHT22;27073;51.128;4.220;2023-04-25T08:27:58;9.40;19.00
41324;DHT22;27073;51.128;4.220;2023-04-25T08:30:25;9.50;21.80
41324;DHT22;27073;51.128;4.220;2023-04-25T08:32:51;9.50;14.30
41324;DHT22;27073;51.128;4.220;2023-04-25T08:35:46;9.70;15.10
41324;DHT22;27073;51.128;4.220;2023-04-25T08:38:12;9.80;7.50
41324;DHT22;27073;51.128;4.220;2023-04-25T08:40:39;9.40;19.30
41324;DHT22;27073;51.128;4.220;2023-04-25T08:43:18;9.40;30.50
41324;DHT22;27073;51.128;4.220;2023-04-25T08:45:44;9.20;27.40
41324;DHT22;27073;51.128;4.220;2023-04-25T08:48:18;9.30;26.40
41324;DHT22;27073;51.128;4.220;2023-04-25T08:50:52;9.40;23.40
41324;DHT22;27073;51.128;4.220;2023-04-25T08:53:39;9.70;21.50
41324;DHT22;27073;51.128;4.220;2023-04-25T08:56:08;9.70;8.80
41324;DHT22;27073;51.128;4.220;2023-04-25T08:58:35;9.70;2.90
41324;DHT22;27073;51.128;4.220;2023-04-25T09:01:03;9.70;9.20
41324;DHT22;27073;51.128;4.220;2023-04-25T09:03:35;9.90;9.40
41324;DHT22;27073;51.128;4.220;2023-04-25T09:06:01;9.80;9.00
41324;DHT22;27073;51.128;4.220;2023-04-25T09:08:27;9.90;1.00
41324;DHT22;27073;51.128;4.220;2023-04-25T09:10:53;9.90;1.00
41324;DHT22;27073;51.128;4.220;2023-04-25T09:13:27;9.90;1.00
41324;DHT22;27073;51.128;4.220;2023-04-25T09:16:11;10.20;1.00
41324;DHT22;27073;51.128;4.220;2023-04-25T09:18:50;10.60;99.90
41324;DHT22;27073;51.128;4.220;2023-04-25T09:21:16;11.00;1.00
41324;DHT22;27073;51.128;4.220;2023-04-25T09:23:47;11.10;99.90
41324;DHT22;27073;51.128;4.220;2023-04-25T09:26:18;11.10;99.90
41324;DHT22;27073;51.128;4.220;2023-04-25T09:28:45;11.00;99.90
41324;DHT22;27073;51.128;4.220;2023-04-25T09:31:22;11.00;99.90
41324;DHT22;27073;51.128;4.220;2023-04-25T09:33:50;11.10;99.90
41324;DHT22;27073;51.128;4.220;2023-04-25T09:36:26;11.00;99.90
41324;DHT22;27073;51.128;4.220;2023-04-25T09:39:12;10.80;99.90
41324;DHT22;27073;51.128;4.220;2023-04-25T09:41:46;11.00;99.90
41324;DHT22;27073;51.128;4.220;2023-04-25T09:44:13;11.20;99.90
41324;DHT22;27073;51.128;4.220;2023-04-25T09:46:40;11.10;99.90
41324;DHT22;27073;51.128;4.220;2023-04-25T09:49:23;11.00;99.90
41324;DHT22;27073;51.128;4.220;2023-04-25T09:52:00;10.60;99.90
41324;DHT22;27073;51.128;4.220;2023-04-25T09:54:32;10.40;1.00
41324;DHT22;27073;51.128;4.220;2023-04-25T09:57:14;10.60;1.00
41324;DHT22;27073;51.128;4.220;2023-04-25T09:59:49;10.60;1.00
41324;DHT22;27073;51.128;4.220;2023-04-25T10:02:21;10.30;1.00
41324;DHT22;27073;51.128;4.220;2023-04-25T10:04:50;10.10;1.00
41324;DHT22;27073;51.128;4.220;2023-04-25T10:07:30;10.20;1.00
41324;DHT22;27073;51.128;4.220;2023-04-25T10:10:01;10.10;1.00
41324;DHT22;27073;51.128;4.220;2023-04-25T10:12:29;10.10;1.00
41324;DHT22;27073;51.128;4.220;2023-04-25T10:14:57;10.10;1.00
41324;DHT22;27073;51.128;4.220;2023-04-25T10:17:23;9.90;7.20
41324;DHT22;27073;51.128;4.220;2023-04-25T10:19:51;10.00;20.60
41324;DHT22;27073;51.128;4.220;2023-04-25T10:22:44;9.90;1.00
41324;DHT22;27073;51.128;4.220;2023-04-25T10:25:10;10.20;8.80
41324;DHT22;27073;51.128;4.220;2023-04-25T10:27:38;10.00;1.00
41324;DHT22;27073;51.128;4.220;2023-04-25T10:30:13;10.10;1.00
41324;DHT22;27073;51.128;4.220;2023-04-25T10:32:42;10.20;1.00
41324;DHT22;27073;51.128;4.220;2023-04-25T10:35:16;10.30;1.00
41324;DHT22;27073;51.128;4.220;2023-04-25T10:38:05;10.60;1.00
41324;DHT22;27073;51.128;4.220;2023-04-25T10:40:32;10.60;1.00
41324;DHT22;27073;51.128;4.220;2023-04-25T10:43:37;10.50;99.90
41324;DHT22;27073;51.128;4.220;2023-04-25T10:46:30;10.40;99.90
41324;DHT22;27073;51.128;4.220;2023-04-25T10:49:00;10.60;99.90
41324;DHT22;27073;51.128;4.220;2023-04-25T10:51:31;10.90;99.90
41324;DHT22;27073;51.128;4.220;2023-04-25T10:54:03;11.30;99.90
41324;DHT22;27073;51.128;4.220;2023-04-25T10:59:10;11.40;23.10
41324;DHT22;27073;51.128;4.220;2023-04-25T11:01:44;11.40;8.80
41324;DHT22;27073;51.128;4.220;2023-04-25T11:09:39;11.20;99.90
41324;DHT22;27073;51.128;4.220;2023-04-25T11:12:08;10.90;99.90
41324;DHT22;27073;51.128;4.220;2023-04-25T11:14:34;11.20;1.00
41324;DHT22;27073;51.128;4.220;2023-04-25T11:17:03;11.40;99.90
41324;DHT22;27073;51.128;4.220;2023-04-25T11:19:29;11.40;99.90
41324;DHT22;27073;51.128;4.220;2023-04-25T11:21:56;11.60;99.90
41324;DHT22;27073;51.128;4.220;2023-04-25T11:24:40;11.70;99.90
41324;DHT22;27073;51.128;4.220;2023-04-25T11:27:06;12.00;99.90
41324;DHT22;27073;51.128;4.220;2023-04-25T11:29:33;12.10;99.90
41324;DHT22;27073;51.128;4.220;2023-04-25T11:31:59;12.10;1.00
41324;DHT22;27073;51.128;4.220;2023-04-25T11:34:27;11.90;99.90
41324;DHT22;27073;51.128;4.220;2023-04-25T11:36:53;11.80;99.90
41324;DHT22;27073;51.128;4.220;2023-04-25T11:39:19;11.90;99.90
41324;DHT22;27073;51.128;4.220;2023-04-25T11:41:46;12.30;99.90
41324;DHT22;27073;51.128;4.220;2023-04-25T11:44:15;12.50;99.90
41324;DHT22;27073;51.128;4.220;2023-04-25T11:46:42;12.70;99.90
41324;DHT22;27073;51.128;4.220;2023-04-25T11:49:08;12.40;99.90
41324;DHT22;27073;51.128;4.220;2023-04-25T11:51:45;12.00;99.90
41324;DHT22;27073;51.128;4.220;2023-04-25T11:54:12;11.70;99.90
41324;DHT22;27073;51.128;4.220;2023-04-25T11:56:43;11.40;99.90
41324;DHT22;27073;51.128;4.220;2023-04-25T11:59:09;11.10;99.90
41324;DHT22;27073;51.128;4.220;2023-04-25T12:01:36;11.20;99.90
41324;DHT22;27073;51.128;4.220;2023-04-25T12:04:12;11.20;99.90
41324;DHT22;27073;51.128;4.220;2023-04-25T12:06:39;11.30;99.90
41324;DHT22;27073;51.128;4.220;2023-04-25T12:09:08;11.30;50.30
41324;DHT22;27073;51.128;4.220;2023-04-25T12:11:44;11.30;1.00
41324;DHT22;27073;51.128;4.220;2023-04-25T12:14:11;11.80;99.90
41324;DHT22;27073;51.128;4.220;2023-04-25T12:16:42;12.10;1.00
41324;DHT22;27073;51.128;4.220;2023-04-25T12:19:08;12.00;99.90
41324;DHT22;27073;51.128;4.220;2023-04-25T12:21:34;11.80;1.00
41324;DHT22;27073;51.128;4.220;2023-04-25T12:24:26;11.50;95.70
41324;DHT22;27073;51.128;4.220;2023-04-25T12:29:27;11.90;99.90
41324;DHT22;27073;51.128;4.220;2023-04-25T12:31:54;12.40;99.90
41324;DHT22;27073;51.128;4.220;2023-04-25T12:34:21;12.80;99.90
41324;DHT22;27073;51.128;4.220;2023-04-25T12:36:47;13.30;99.90
41324;DHT22;27073;51.128;4.220;2023-04-25T12:39:21;13.40;1.00
41324;DHT22;27073;51.128;4.220;2023-04-25T12:41:50;13.30;99.90
41324;DHT22;27073;51.128;4.220;2023-04-25T12:44:17;13.00;99.90
41324;DHT22;27073;51.128;4.220;2023-04-25T12:46:43;12.90;37.30
41324;DHT22;27073;51.128;4.220;2023-04-25T12:49:09;12.40;1.00
41324;DHT22;27073;51.128;4.220;2023-04-25T12:51:38;12.20;94.20
41324;DHT22;27073;51.128;4.220;2023-04-25T12:54:05;12.20;99.90
41324;DHT22;27073;51.128;4.220;2023-04-25T12:56:32;12.00;99.90
41324;DHT22;27073;51.128;4.220;2023-04-25T12:58:58;11.80;99.90
41324;DHT22;27073;51.128;4.220;2023-04-25T13:01:24;12.00;99.90
41324;DHT22;27073;51.128;4.220;2023-04-25T13:03:51;11.70;1.00
41324;DHT22;27073;51.128;4.220;2023-04-25T13:06:17;11.70;99.90
41324;DHT22;27073;51.128;4.220;2023-04-25T13:08:43;11.80;99.90
41324;DHT22;27073;51.128;4.220;2023-04-25T13:11:09;11.90;99.90
41324;DHT22;27073;51.128;4.220;2023-04-25T13:13:35;12.20;60.40
41324;DHT22;27073;51.128;4.220;2023-04-25T13:16:02;12.50;99.90
41324;DHT22;27073;51.128;4.220;2023-04-25T13:18:29;13.00;99.90
41324;DHT22;27073;51.128;4.220;2023-04-25T13:20:55;13.30;99.90
41324;DHT22;27073;51.128;4.220;2023-04-25T13:23:21;12.50;1.00
41324;DHT22;27073;51.128;4.220;2023-04-25T13:25:47;12.20;99.90
41324;DHT22;27073;51.128;4.220;2023-04-25T13:28:13;12.20;99.90
41324;DHT22;27073;51.128;4.220;2023-04-25T13:30:39;12.00;99.90
41324;DHT22;27073;51.128;4.220;2023-04-25T13:33:05;12.10;99.90
41324;DHT22;27073;51.128;4.220;2023-04-25T13:35:33;12.60;99.90
41324;DHT22;27073;51.128;4.220;2023-04-25T13:37:59;12.80;99.90
41324;DHT22;27073;51.128;4.220;2023-04-25T13:40:26;12.00;99.90
41324;DHT22;27073;51.128;4.220;2023-04-25T13:42:52;11.80;99.90
41324;DHT22;27073;51.128;4.220;2023-04-25T13:45:19;11.60;99.90
41324;DHT22;27073;51.128;4.220;2023-04-25T13:47:45;11.60;99.90
41324;DHT22;27073;51.128;4.220;2023-04-25T13:50:11;12.00;1.00
41324;DHT22;27073;51.128;4.220;2023-04-25T13:52:37;12.10;99.90
41324;DHT22;27073;51.128;4.220;2023-04-25T13:55:03;12.40;99.90
41324;DHT22;27073;51.128;4.220;2023-04-25T13:57:32;12.50;99.90
41324;DHT22;27073;51.128;4.220;2023-04-25T13:59:58;12.60;11.50
41324;DHT22;27073;51.128;4.220;2023-04-25T14:02:25;12.90;1.00
41324;DHT22;27073;51.128;4.220;2023-04-25T14:04:51;13.10;1.00
41324;DHT22;27073;51.128;4.220;2023-04-25T14:07:17;13.70;99.90
41324;DHT22;27073;51.128;4.220;2023-04-25T14:09:44;13.80;99.90
41324;DHT22;27073;51.128;4.220;2023-04-25T14:12:10;13.70;99.90
41324;DHT22;27073;51.128;4.220;2023-04-25T14:14:36;14.10;87.40
41324;DHT22;27073;51.128;4.220;2023-04-25T14:17:03;14.70;1.00
41324;DHT22;27073;51.128;4.220;2023-04-25T14:19:29;15.30;99.90
41324;DHT22;27073;51.128;4.220;2023-04-25T14:21:55;15.00;99.90
41324;DHT22;27073;51.128;4.220;2023-04-25T14:24:21;14.70;99.90
41324;DHT22;27073;51.128;4.220;2023-04-25T14:26:47;16.30;1.00
41324;DHT22;27073;51.128;4.220;2023-04-25T14:29:12;17.20;99.90
41324;DHT22;27073;51.128;4.220;2023-04-25T14:31:39;16.10;99.90
41324;DHT22;27073;51.128;4.220;2023-04-25T14:34:05;17.80;99.90
41324;DHT22;27073;51.128;4.220;2023-04-25T14:36:32;18.40;99.90
41324;DHT22;27073;51.128;4.220;2023-04-25T14:38:58;19.70;99.90
41324;DHT22;27073;51.128;4.220;2023-04-25T14:41:25;19.60;99.90
41324;DHT22;27073;51.128;4.220;2023-04-25T14:43:51;20.40;99.90
41324;DHT22;27073;51.128;4.220;2023-04-25T14:46:18;20.40;99.90
41324;DHT22;27073;51.128;4.220;2023-04-25T14:48:45;21.50;99.90
41324;DHT22;27073;51.128;4.220;2023-04-25T14:51:11;21.50;82.50
41324;DHT22;27073;51.128;4.220;2023-04-25T14:53:37;21.60;55.90
41324;DHT22;27073;51.128;4.220;2023-04-25T14:56:03;21.10;22.50
41324;DHT22;27073;51.128;4.220;2023-04-25T14:58:29;20.70;10.20
41324;DHT22;27073;51.128;4.220;2023-04-25T15:00:54;20.40;15.80
41324;DHT22;27073;51.128;4.220;2023-04-25T15:03:20;19.30;10.30
41324;DHT22;27073;51.128;4.220;2023-04-25T15:05:46;19.40;16.30
41324;DHT22;27073;51.128;4.220;2023-04-25T15:08:12;18.80;11.30
41324;DHT22;27073;51.128;4.220;2023-04-25T15:10:38;19.20;18.10
41324;DHT22;27073;51.128;4.220;2023-04-25T15:13:04;17.70;24.40
41324;DHT22;27073;51.128;4.220;2023-04-25T15:15:30;17.50;59.90
41324;DHT22;27073;51.128;4.220;2023-04-25T15:17:55;17.70;59.30
41324;DHT22;27073;51.128;4.220;2023-04-25T15:20:22;18.70;63.10
41324;DHT22;27073;51.128;4.220;2023-04-25T15:22:48;17.80;65.90
41324;DHT22;27073;51.128;4.220;2023-04-25T15:25:15;18.10;86.80
41324;DHT22;27073;51.128;4.220;2023-04-25T15:27:44;17.80;90.00
41324;DHT22;27073;51.128;4.220;2023-04-25T15:30:13;16.70;99.90
41324;DHT22;27073;51.128;4.220;2023-04-25T15:32:41;18.50;99.90
41324;DHT22;27073;51.128;4.220;2023-04-25T15:35:07;18.90;99.90
41324;DHT22;27073;51.128;4.220;2023-04-25T15:37:34;18.50;99.90
41324;DHT22;27073;51.128;4.220;2023-04-25T15:40:05;18.30;99.90
41324;DHT22;27073;51.128;4.220;2023-04-25T15:42:36;17.00;99.90
41324;DHT22;27073;51.128;4.220;2023-04-25T15:45:06;15.90;99.90
41324;DHT22;27073;51.128;4.220;2023-04-25T15:47:34;15.10;99.90
41324;DHT22;27073;51.128;4.220;2023-04-25T15:50:01;15.10;1.00
41324;DHT22;27073;51.128;4.220;2023-04-25T15:52:27;16.10;1.00
41324;DHT22;27073;51.128;4.220;2023-04-25T15:54:53;15.40;99.90
41324;DHT22;27073;51.128;4.220;2023-04-25T15:57:19;14.90;1.00
41324;DHT22;27073;51.128;4.220;2023-04-25T15:59:46;15.70;97.80
41324;DHT22;27073;51.128;4.220;2023-04-25T16:02:12;16.20;1.00
41324;DHT22;27073;51.128;4.220;2023-04-25T16:04:38;17.40;99.90